sensor_id;sensor_type;location;lat;lon;timestamp;P1;durP1;ratioP1;P2;durP2;ratioP2
75628;SDS011;64213;46.452;16.994;2022-12-08T00:02:15;15.00;;;4.85;;
75628;SDS011;64213;46.452;16.994;2022-12-08T00:05:17;16.08;;;5.00;;
75628;SDS011;64213;46.452;16.994;2022-12-08T00:08:38;13.60;;;4.75;;
75628;SDS011;64213;46.452;16.994;2022-12-08T00:12:00;16.17;;;5.60;;
75628;SDS011;64213;46.452;16.994;2022-12-08T00:15:03;15.27;;;5.37;;
75628;SDS011;64213;46.452;16.994;2022-12-08T00:18:06;17.33;;;5.95;;
75628;SDS011;64213;46.452;16.994;2022-12-08T00:21:08;16.02;;;5.45;;
75628;SDS011;64213;46.452;16.994;2022-12-08T00:24:10;19.85;;;6.62;;
75628;SDS011;64213;46.452;16.994;2022-12-08T00:27:14;17.17;;;5.60;;
75628;SDS011;64213;46.452;16.994;2022-12-08T00:30:17;16.27;;;5.50;;
75628;SDS011;64213;46.452;16.994;2022-12-08T00:33:19;17.60;;;5.50;;
75628;SDS011;64213;46.452;16.994;2022-12-08T00:36:21;16.25;;;5.82;;
75628;SDS011;64213;46.452;16.994;2022-12-08T00:39:23;18.35;;;5.72;;
75628;SDS011;64213;46.452;16.994;2022-12-08T00:42:25;14.17;;;5.17;;
75628;SDS011;64213;46.452;16.994;2022-12-08T00:45:27;10.30;;;4.30;;
75628;SDS011;64213;46.452;16.994;2022-12-08T00:48:30;18.37;;;5.55;;
75628;SDS011;64213;46.452;16.994;2022-12-08T00:51:33;14.45;;;4.80;;
75628;SDS011;64213;46.452;16.994;2022-12-08T00:54:35;14.43;;;4.47;;
75628;SDS011;64213;46.452;16.994;2022-12-08T00:57:37;14.33;;;4.17;;
75628;SDS011;64213;46.452;16.994;2022-12-08T01:00:40;19.50;;;5.83;;
75628;SDS011;64213;46.452;16.994;2022-12-08T01:03:43;17.00;;;5.40;;
75628;SDS011;64213;46.452;16.994;2022-12-08T01:06:45;13.70;;;4.65;;
75628;SDS011;64213;46.452;16.994;2022-12-08T01:09:48;18.30;;;5.20;;
75628;SDS011;64213;46.452;16.994;2022-12-08T01:12:50;16.57;;;5.53;;
75628;SDS011;64213;46.452;16.994;2022-12-08T01:15:52;18.83;;;5.93;;
75628;SDS011;64213;46.452;16.994;2022-12-08T01:18:55;18.10;;;5.68;;
75628;SDS011;64213;46.452;16.994;2022-12-08T01:21:57;16.95;;;6.32;;
75628;SDS011;64213;46.452;16.994;2022-12-08T01:25:00;21.23;;;6.70;;
75628;SDS011;64213;46.452;16.994;2022-12-08T01:28:02;19.17;;;6.93;;
75628;SDS011;64213;46.452;16.994;2022-12-08T01:31:08;19.00;;;6.93;;
75628;SDS011;64213;46.452;16.994;2022-12-08T01:34:13;14.85;;;5.25;;
75628;SDS011;64213;46.452;16.994;2022-12-08T01:37:15;13.95;;;4.80;;
75628;SDS011;64213;46.452;16.994;2022-12-08T01:40:17;14.45;;;5.60;;
75628;SDS011;64213;46.452;16.994;2022-12-08T01:43:19;13.80;;;5.27;;
75628;SDS011;64213;46.452;16.994;2022-12-08T01:46:22;14.93;;;4.37;;
75628;SDS011;64213;46.452;16.994;2022-12-08T01:49:29;14.75;;;4.90;;
75628;SDS011;64213;46.452;16.994;2022-12-08T01:52:37;14.68;;;5.12;;
75628;SDS011;64213;46.452;16.994;2022-12-08T01:55:52;13.07;;;4.40;;
75628;SDS011;64213;46.452;16.994;2022-12-08T01:58:56;15.70;;;5.23;;
75628;SDS011;64213;46.452;16.994;2022-12-08T02:01:58;18.27;;;6.07;;
75628;SDS011;64213;46.452;16.994;2022-12-08T02:05:00;16.77;;;5.00;;
75628;SDS011;64213;46.452;16.994;2022-12-08T02:08:07;11.40;;;3.85;;
75628;SDS011;64213;46.452;16.994;2022-12-08T02:11:11;13.35;;;4.95;;
75628;SDS011;64213;46.452;16.994;2022-12-08T02:14:14;14.40;;;4.87;;
75628;SDS011;64213;46.452;16.994;2022-12-08T02:17:30;15.53;;;4.70;;
75628;SDS011;64213;46.452;16.994;2022-12-08T02:31:01;13.80;;;5.07;;
75628;SDS011;64213;46.452;16.994;2022-12-08T02:37:38;15.57;;;5.32;;
75628;SDS011;64213;46.452;16.994;2022-12-08T02:40:51;13.80;;;4.95;;
75628;SDS011;64213;46.452;16.994;2022-12-08T02:44:11;14.38;;;5.05;;
75628;SDS011;64213;46.452;16.994;2022-12-08T02:47:28;15.00;;;4.80;;
75628;SDS011;64213;46.452;16.994;2022-12-08T02:50:32;9.93;;;3.77;;
75628;SDS011;64213;46.452;16.994;2022-12-08T02:53:35;13.55;;;5.28;;
75628;SDS011;64213;46.452;16.994;2022-12-08T02:56:42;15.00;;;4.93;;
75628;SDS011;64213;46.452;16.994;2022-12-08T03:03:23;16.37;;;5.90;;
75628;SDS011;64213;46.452;16.994;2022-12-08T03:09:54;13.38;;;4.30;;
75628;SDS011;64213;46.452;16.994;2022-12-08T03:13:13;15.68;;;5.53;;
75628;SDS011;64213;46.452;16.994;2022-12-08T03:16:19;15.30;;;5.05;;
75628;SDS011;64213;46.452;16.994;2022-12-08T03:19:26;15.17;;;4.83;;
75628;SDS011;64213;46.452;16.994;2022-12-08T03:22:33;14.67;;;4.83;;
75628;SDS011;64213;46.452;16.994;2022-12-08T03:25:35;12.35;;;4.10;;
75628;SDS011;64213;46.452;16.994;2022-12-08T03:28:43;13.48;;;4.53;;
75628;SDS011;64213;46.452;16.994;2022-12-08T03:31:48;13.02;;;3.78;;
75628;SDS011;64213;46.452;16.994;2022-12-08T03:34:55;13.33;;;4.47;;
75628;SDS011;64213;46.452;16.994;2022-12-08T03:38:08;15.17;;;5.13;;
75628;SDS011;64213;46.452;16.994;2022-12-08T03:41:14;14.05;;;4.30;;
75628;SDS011;64213;46.452;16.994;2022-12-08T03:44:19;13.75;;;4.07;;
75628;SDS011;64213;46.452;16.994;2022-12-08T03:47:21;13.52;;;4.18;;
75628;SDS011;64213;46.452;16.994;2022-12-08T03:50:24;13.13;;;4.47;;
75628;SDS011;64213;46.452;16.994;2022-12-08T03:53:26;11.67;;;3.60;;
75628;SDS011;64213;46.452;16.994;2022-12-08T03:56:30;14.55;;;4.47;;
75628;SDS011;64213;46.452;16.994;2022-12-08T03:59:33;14.98;;;4.40;;
75628;SDS011;64213;46.452;16.994;2022-12-08T04:02:35;10.70;;;3.25;;
75628;SDS011;64213;46.452;16.994;2022-12-08T04:05:37;9.13;;;4.00;;
75628;SDS011;64213;46.452;16.994;2022-12-08T04:08:39;13.00;;;4.20;;
75628;SDS011;64213;46.452;16.994;2022-12-08T04:11:42;13.60;;;4.68;;
75628;SDS011;64213;46.452;16.994;2022-12-08T04:14:44;13.80;;;4.40;;
75628;SDS011;64213;46.452;16.994;2022-12-08T04:17:46;15.65;;;5.07;;
75628;SDS011;64213;46.452;16.994;2022-12-08T04:20:48;13.63;;;4.70;;
75628;SDS011;64213;46.452;16.994;2022-12-08T04:23:50;12.57;;;3.97;;
75628;SDS011;64213;46.452;16.994;2022-12-08T04:27:01;12.45;;;4.35;;
75628;SDS011;64213;46.452;16.994;2022-12-08T04:30:03;16.95;;;5.53;;
75628;SDS011;64213;46.452;16.994;2022-12-08T04:33:06;14.85;;;5.25;;
75628;SDS011;64213;46.452;16.994;2022-12-08T04:36:08;17.30;;;5.83;;
75628;SDS011;64213;46.452;16.994;2022-12-08T04:39:10;14.87;;;5.27;;
75628;SDS011;64213;46.452;16.994;2022-12-08T04:42:12;16.58;;;5.45;;
75628;SDS011;64213;46.452;16.994;2022-12-08T04:45:14;15.30;;;6.00;;
75628;SDS011;64213;46.452;16.994;2022-12-08T04:48:17;15.73;;;5.03;;
75628;SDS011;64213;46.452;16.994;2022-12-08T04:51:19;18.57;;;5.83;;
75628;SDS011;64213;46.452;16.994;2022-12-08T04:54:21;17.30;;;5.63;;
75628;SDS011;64213;46.452;16.994;2022-12-08T04:57:23;15.52;;;5.62;;
75628;SDS011;64213;46.452;16.994;2022-12-08T05:00:28;17.30;;;6.60;;
75628;SDS011;64213;46.452;16.994;2022-12-08T05:03:30;18.83;;;6.32;;
75628;SDS011;64213;46.452;16.994;2022-12-08T05:06:32;16.20;;;6.03;;
75628;SDS011;64213;46.452;16.994;2022-12-08T05:09:34;16.67;;;6.57;;
75628;SDS011;64213;46.452;16.994;2022-12-08T05:12:36;18.33;;;6.62;;
75628;SDS011;64213;46.452;16.994;2022-12-08T05:15:38;18.42;;;6.68;;
75628;SDS011;64213;46.452;16.994;2022-12-08T05:18:40;17.27;;;6.53;;
75628;SDS011;64213;46.452;16.994;2022-12-08T05:21:43;16.33;;;6.03;;
75628;SDS011;64213;46.452;16.994;2022-12-08T05:24:46;16.60;;;6.17;;
75628;SDS011;64213;46.452;16.994;2022-12-08T05:27:48;19.27;;;7.45;;
75628;SDS011;64213;46.452;16.994;2022-12-08T05:30:50;17.25;;;6.05;;
75628;SDS011;64213;46.452;16.994;2022-12-08T05:33:53;16.40;;;6.28;;
75628;SDS011;64213;46.452;16.994;2022-12-08T05:37:02;17.20;;;6.43;;
75628;SDS011;64213;46.452;16.994;2022-12-08T05:40:05;19.87;;;6.30;;
75628;SDS011;64213;46.452;16.994;2022-12-08T05:43:08;21.20;;;7.62;;
75628;SDS011;64213;46.452;16.994;2022-12-08T05:46:11;16.05;;;5.87;;
75628;SDS011;64213;46.452;16.994;2022-12-08T05:49:13;14.98;;;5.82;;
75628;SDS011;64213;46.452;16.994;2022-12-08T05:52:16;8.87;;;3.10;;
75628;SDS011;64213;46.452;16.994;2022-12-08T05:55:18;16.30;;;4.63;;
75628;SDS011;64213;46.452;16.994;2022-12-08T05:58:20;17.60;;;6.30;;
75628;SDS011;64213;46.452;16.994;2022-12-08T06:01:25;18.48;;;7.35;;
75628;SDS011;64213;46.452;16.994;2022-12-08T06:04:31;15.70;;;6.37;;
75628;SDS011;64213;46.452;16.994;2022-12-08T06:07:33;17.37;;;6.30;;
75628;SDS011;64213;46.452;16.994;2022-12-08T06:10:36;17.50;;;6.73;;
75628;SDS011;64213;46.452;16.994;2022-12-08T06:13:39;20.52;;;8.10;;
75628;SDS011;64213;46.452;16.994;2022-12-08T06:16:41;20.88;;;7.05;;
75628;SDS011;64213;46.452;16.994;2022-12-08T06:19:43;17.92;;;6.50;;
75628;SDS011;64213;46.452;16.994;2022-12-08T06:22:45;13.03;;;4.90;;
75628;SDS011;64213;46.452;16.994;2022-12-08T06:25:47;20.07;;;7.43;;
75628;SDS011;64213;46.452;16.994;2022-12-08T06:28:49;18.35;;;6.62;;
75628;SDS011;64213;46.452;16.994;2022-12-08T06:31:51;19.80;;;6.78;;
75628;SDS011;64213;46.452;16.994;2022-12-08T06:34:54;15.82;;;6.18;;
75628;SDS011;64213;46.452;16.994;2022-12-08T06:37:56;17.40;;;6.93;;
75628;SDS011;64213;46.452;16.994;2022-12-08T06:40:58;17.83;;;7.20;;
75628;SDS011;64213;46.452;16.994;2022-12-08T06:44:00;18.58;;;7.82;;
75628;SDS011;64213;46.452;16.994;2022-12-08T06:47:03;15.05;;;6.37;;
75628;SDS011;64213;46.452;16.994;2022-12-08T06:50:08;19.00;;;7.18;;
75628;SDS011;64213;46.452;16.994;2022-12-08T06:53:11;18.77;;;7.47;;
75628;SDS011;64213;46.452;16.994;2022-12-08T06:56:15;19.87;;;7.83;;
75628;SDS011;64213;46.452;16.994;2022-12-08T06:59:21;17.73;;;6.90;;
75628;SDS011;64213;46.452;16.994;2022-12-08T07:02:24;18.17;;;6.50;;
75628;SDS011;64213;46.452;16.994;2022-12-08T07:05:26;19.48;;;6.53;;
75628;SDS011;64213;46.452;16.994;2022-12-08T07:08:28;21.07;;;7.67;;
75628;SDS011;64213;46.452;16.994;2022-12-08T07:11:30;16.80;;;6.70;;
75628;SDS011;64213;46.452;16.994;2022-12-08T07:14:32;15.82;;;5.57;;
75628;SDS011;64213;46.452;16.994;2022-12-08T07:17:34;19.52;;;7.03;;
75628;SDS011;64213;46.452;16.994;2022-12-08T07:20:37;12.90;;;4.05;;
75628;SDS011;64213;46.452;16.994;2022-12-08T07:23:39;16.87;;;5.63;;
75628;SDS011;64213;46.452;16.994;2022-12-08T07:26:42;18.77;;;6.13;;
75628;SDS011;64213;46.452;16.994;2022-12-08T07:29:44;17.45;;;7.45;;
75628;SDS011;64213;46.452;16.994;2022-12-08T07:32:46;17.92;;;6.82;;
75628;SDS011;64213;46.452;16.994;2022-12-08T07:35:57;20.05;;;7.97;;
75628;SDS011;64213;46.452;16.994;2022-12-08T07:39:04;19.57;;;6.70;;
75628;SDS011;64213;46.452;16.994;2022-12-08T07:42:07;18.07;;;6.37;;
75628;SDS011;64213;46.452;16.994;2022-12-08T07:45:09;16.17;;;6.32;;
75628;SDS011;64213;46.452;16.994;2022-12-08T07:48:11;16.75;;;6.57;;
75628;SDS011;64213;46.452;16.994;2022-12-08T07:51:14;19.10;;;7.18;;
75628;SDS011;64213;46.452;16.994;2022-12-08T07:54:17;19.23;;;7.70;;
75628;SDS011;64213;46.452;16.994;2022-12-08T07:57:19;20.10;;;8.23;;
75628;SDS011;64213;46.452;16.994;2022-12-08T08:00:21;20.27;;;7.30;;
75628;SDS011;64213;46.452;16.994;2022-12-08T08:03:24;18.52;;;7.07;;
75628;SDS011;64213;46.452;16.994;2022-12-08T08:06:26;20.08;;;7.35;;
75628;SDS011;64213;46.452;16.994;2022-12-08T08:09:28;21.37;;;8.47;;
75628;SDS011;64213;46.452;16.994;2022-12-08T08:12:31;18.97;;;7.50;;
75628;SDS011;64213;46.452;16.994;2022-12-08T08:15:34;16.50;;;6.72;;
75628;SDS011;64213;46.452;16.994;2022-12-08T08:18:36;21.33;;;8.13;;
75628;SDS011;64213;46.452;16.994;2022-12-08T08:21:41;18.95;;;7.62;;
75628;SDS011;64213;46.452;16.994;2022-12-08T08:24:46;21.07;;;8.30;;
75628;SDS011;64213;46.452;16.994;2022-12-08T08:27:49;23.20;;;9.83;;
75628;SDS011;64213;46.452;16.994;2022-12-08T08:30:51;24.87;;;9.85;;
75628;SDS011;64213;46.452;16.994;2022-12-08T08:33:54;21.27;;;9.57;;
75628;SDS011;64213;46.452;16.994;2022-12-08T08:36:57;21.15;;;8.30;;
75628;SDS011;64213;46.452;16.994;2022-12-08T08:39:59;26.93;;;10.30;;
75628;SDS011;64213;46.452;16.994;2022-12-08T08:43:02;27.97;;;12.07;;
75628;SDS011;64213;46.452;16.994;2022-12-08T08:46:06;29.02;;;12.55;;
75628;SDS011;64213;46.452;16.994;2022-12-08T08:49:10;31.67;;;12.82;;
75628;SDS011;64213;46.452;16.994;2022-12-08T08:52:12;29.75;;;13.25;;
75628;SDS011;64213;46.452;16.994;2022-12-08T08:55:14;26.53;;;12.17;;
75628;SDS011;64213;46.452;16.994;2022-12-08T08:58:17;29.60;;;12.17;;
75628;SDS011;64213;46.452;16.994;2022-12-08T09:01:23;24.00;;;10.45;;
75628;SDS011;64213;46.452;16.994;2022-12-08T09:04:27;21.02;;;9.30;;
75628;SDS011;64213;46.452;16.994;2022-12-08T09:07:29;25.70;;;10.45;;
75628;SDS011;64213;46.452;16.994;2022-12-08T09:10:32;23.47;;;10.37;;
75628;SDS011;64213;46.452;16.994;2022-12-08T09:13:34;26.73;;;11.30;;
75628;SDS011;64213;46.452;16.994;2022-12-08T09:16:36;27.33;;;11.40;;
75628;SDS011;64213;46.452;16.994;2022-12-08T09:19:43;25.45;;;10.95;;
75628;SDS011;64213;46.452;16.994;2022-12-08T09:22:45;24.40;;;10.82;;
75628;SDS011;64213;46.452;16.994;2022-12-08T09:25:47;25.73;;;10.77;;
75628;SDS011;64213;46.452;16.994;2022-12-08T09:28:50;21.20;;;8.97;;
75628;SDS011;64213;46.452;16.994;2022-12-08T09:31:53;24.02;;;9.55;;
75628;SDS011;64213;46.452;16.994;2022-12-08T09:34:56;22.65;;;9.30;;
75628;SDS011;64213;46.452;16.994;2022-12-08T09:37:58;27.33;;;10.65;;
75628;SDS011;64213;46.452;16.994;2022-12-08T09:41:01;25.83;;;9.77;;
75628;SDS011;64213;46.452;16.994;2022-12-08T09:50:56;23.87;;;9.90;;
75628;SDS011;64213;46.452;16.994;2022-12-08T09:54:06;26.25;;;10.07;;
75628;SDS011;64213;46.452;16.994;2022-12-08T09:57:13;19.60;;;7.90;;
75628;SDS011;64213;46.452;16.994;2022-12-08T10:00:20;23.43;;;10.17;;
75628;SDS011;64213;46.452;16.994;2022-12-08T10:03:23;22.62;;;9.13;;
75628;SDS011;64213;46.452;16.994;2022-12-08T10:10:11;23.87;;;10.05;;
75628;SDS011;64213;46.452;16.994;2022-12-08T10:13:41;23.37;;;9.23;;
75628;SDS011;64213;46.452;16.994;2022-12-08T10:20:30;26.05;;;10.55;;
75628;SDS011;64213;46.452;16.994;2022-12-08T10:23:38;22.37;;;9.93;;
75628;SDS011;64213;46.452;16.994;2022-12-08T10:26:44;24.70;;;9.98;;
75628;SDS011;64213;46.452;16.994;2022-12-08T10:29:47;27.80;;;10.17;;
75628;SDS011;64213;46.452;16.994;2022-12-08T10:32:50;25.63;;;10.73;;
75628;SDS011;64213;46.452;16.994;2022-12-08T10:35:54;24.50;;;10.10;;
75628;SDS011;64213;46.452;16.994;2022-12-08T10:38:59;23.95;;;9.15;;
75628;SDS011;64213;46.452;16.994;2022-12-08T10:45:29;23.60;;;9.57;;
75628;SDS011;64213;46.452;16.994;2022-12-08T10:48:45;21.60;;;8.93;;
75628;SDS011;64213;46.452;16.994;2022-12-08T10:52:23;23.35;;;9.50;;
75628;SDS011;64213;46.452;16.994;2022-12-08T10:55:26;23.67;;;10.68;;
75628;SDS011;64213;46.452;16.994;2022-12-08T11:01:37;24.23;;;10.77;;
75628;SDS011;64213;46.452;16.994;2022-12-08T11:04:41;22.63;;;9.63;;
75628;SDS011;64213;46.452;16.994;2022-12-08T11:07:46;24.58;;;10.65;;
75628;SDS011;64213;46.452;16.994;2022-12-08T11:10:54;26.35;;;10.82;;
75628;SDS011;64213;46.452;16.994;2022-12-08T11:13:56;24.50;;;10.32;;
75628;SDS011;64213;46.452;16.994;2022-12-08T11:20:37;26.37;;;10.33;;
75628;SDS011;64213;46.452;16.994;2022-12-08T11:23:44;25.00;;;9.85;;
75628;SDS011;64213;46.452;16.994;2022-12-08T11:26:59;20.92;;;9.32;;
75628;SDS011;64213;46.452;16.994;2022-12-08T11:30:05;22.48;;;10.15;;
75628;SDS011;64213;46.452;16.994;2022-12-08T11:36:21;23.83;;;9.80;;
75628;SDS011;64213;46.452;16.994;2022-12-08T11:39:26;22.62;;;9.88;;
75628;SDS011;64213;46.452;16.994;2022-12-08T11:42:34;25.65;;;11.18;;
75628;SDS011;64213;46.452;16.994;2022-12-08T11:45:47;26.35;;;10.60;;
75628;SDS011;64213;46.452;16.994;2022-12-08T11:49:00;23.33;;;10.17;;
75628;SDS011;64213;46.452;16.994;2022-12-08T11:52:11;24.47;;;9.87;;
75628;SDS011;64213;46.452;16.994;2022-12-08T11:55:35;22.45;;;8.43;;
75628;SDS011;64213;46.452;16.994;2022-12-08T11:59:02;24.20;;;10.02;;
75628;SDS011;64213;46.452;16.994;2022-12-08T12:02:15;22.45;;;10.65;;
75628;SDS011;64213;46.452;16.994;2022-12-08T12:16:35;23.05;;;10.77;;
75628;SDS011;64213;46.452;16.994;2022-12-08T12:20:02;23.73;;;9.32;;
75628;SDS011;64213;46.452;16.994;2022-12-08T12:26:23;25.77;;;10.97;;
75628;SDS011;64213;46.452;16.994;2022-12-08T12:29:28;27.58;;;11.20;;
75628;SDS011;64213;46.452;16.994;2022-12-08T12:32:44;17.05;;;8.27;;
75628;SDS011;64213;46.452;16.994;2022-12-08T12:35:48;24.67;;;11.55;;
75628;SDS011;64213;46.452;16.994;2022-12-08T12:38:52;21.73;;;9.57;;
75628;SDS011;64213;46.452;16.994;2022-12-08T12:42:03;23.27;;;9.60;;
75628;SDS011;64213;46.452;16.994;2022-12-08T12:45:25;25.25;;;10.98;;
75628;SDS011;64213;46.452;16.994;2022-12-08T12:48:29;21.67;;;9.65;;
75628;SDS011;64213;46.452;16.994;2022-12-08T12:51:42;26.17;;;10.82;;
75628;SDS011;64213;46.452;16.994;2022-12-08T12:57:52;25.37;;;11.07;;
75628;SDS011;64213;46.452;16.994;2022-12-08T13:04:14;26.08;;;11.85;;
75628;SDS011;64213;46.452;16.994;2022-12-08T13:07:19;25.77;;;12.02;;
75628;SDS011;64213;46.452;16.994;2022-12-08T13:10:33;28.03;;;12.67;;
75628;SDS011;64213;46.452;16.994;2022-12-08T13:13:55;27.20;;;13.40;;
75628;SDS011;64213;46.452;16.994;2022-12-08T13:16:59;29.90;;;14.20;;
75628;SDS011;64213;46.452;16.994;2022-12-08T13:20:05;28.45;;;12.50;;
75628;SDS011;64213;46.452;16.994;2022-12-08T13:23:25;25.15;;;11.85;;
75628;SDS011;64213;46.452;16.994;2022-12-08T13:26:46;23.13;;;10.87;;
75628;SDS011;64213;46.452;16.994;2022-12-08T13:30:32;26.93;;;12.40;;
75628;SDS011;64213;46.452;16.994;2022-12-08T13:33:32;29.70;;;12.90;;
75628;SDS011;64213;46.452;16.994;2022-12-08T13:36:48;27.92;;;12.57;;
75628;SDS011;64213;46.452;16.994;2022-12-08T13:40:29;31.20;;;13.13;;
75628;SDS011;64213;46.452;16.994;2022-12-08T13:43:33;26.43;;;12.37;;
75628;SDS011;64213;46.452;16.994;2022-12-08T13:46:59;28.63;;;12.33;;
75628;SDS011;64213;46.452;16.994;2022-12-08T13:54:06;29.02;;;13.50;;
75628;SDS011;64213;46.452;16.994;2022-12-08T13:57:35;31.80;;;13.60;;
75628;SDS011;64213;46.452;16.994;2022-12-08T14:00:38;36.70;;;15.27;;
75628;SDS011;64213;46.452;16.994;2022-12-08T14:03:45;31.60;;;16.10;;
75628;SDS011;64213;46.452;16.994;2022-12-08T14:07:13;32.33;;;14.00;;
75628;SDS011;64213;46.452;16.994;2022-12-08T14:10:17;28.30;;;13.35;;
75628;SDS011;64213;46.452;16.994;2022-12-08T14:13:20;32.83;;;15.88;;
75628;SDS011;64213;46.452;16.994;2022-12-08T14:16:31;30.10;;;13.90;;
75628;SDS011;64213;46.452;16.994;2022-12-08T14:19:38;29.57;;;13.80;;
75628;SDS011;64213;46.452;16.994;2022-12-08T14:22:42;32.45;;;14.55;;
75628;SDS011;64213;46.452;16.994;2022-12-08T14:25:45;31.10;;;13.43;;
75628;SDS011;64213;46.452;16.994;2022-12-08T14:28:48;31.37;;;14.85;;
75628;SDS011;64213;46.452;16.994;2022-12-08T14:31:51;31.67;;;14.93;;
75628;SDS011;64213;46.452;16.994;2022-12-08T14:34:55;31.13;;;14.23;;
75628;SDS011;64213;46.452;16.994;2022-12-08T14:38:18;32.25;;;12.75;;
75628;SDS011;64213;46.452;16.994;2022-12-08T14:41:25;28.65;;;13.20;;
75628;SDS011;64213;46.452;16.994;2022-12-08T14:44:34;24.33;;;11.82;;
75628;SDS011;64213;46.452;16.994;2022-12-08T14:47:40;31.97;;;13.60;;
75628;SDS011;64213;46.452;16.994;2022-12-08T14:50:43;32.07;;;12.57;;
75628;SDS011;64213;46.452;16.994;2022-12-08T14:53:58;25.40;;;10.85;;
75628;SDS011;64213;46.452;16.994;2022-12-08T14:57:15;25.52;;;9.85;;
75628;SDS011;64213;46.452;16.994;2022-12-08T15:00:18;24.27;;;10.18;;
75628;SDS011;64213;46.452;16.994;2022-12-08T15:03:23;25.43;;;11.03;;
75628;SDS011;64213;46.452;16.994;2022-12-08T15:06:27;24.87;;;11.37;;
75628;SDS011;64213;46.452;16.994;2022-12-08T15:12:31;23.12;;;10.75;;
75628;SDS011;64213;46.452;16.994;2022-12-08T15:15:47;22.48;;;10.43;;
75628;SDS011;64213;46.452;16.994;2022-12-08T15:19:02;25.53;;;10.43;;
75628;SDS011;64213;46.452;16.994;2022-12-08T15:22:28;24.90;;;10.23;;
75628;SDS011;64213;46.452;16.994;2022-12-08T15:25:31;28.30;;;12.13;;
75628;SDS011;64213;46.452;16.994;2022-12-08T15:28:33;32.75;;;14.20;;
75628;SDS011;64213;46.452;16.994;2022-12-08T15:31:35;29.33;;;12.45;;
75628;SDS011;64213;46.452;16.994;2022-12-08T15:34:37;29.87;;;12.67;;
75628;SDS011;64213;46.452;16.994;2022-12-08T15:37:40;27.13;;;12.27;;
75628;SDS011;64213;46.452;16.994;2022-12-08T15:40:42;33.15;;;13.68;;
75628;SDS011;64213;46.452;16.994;2022-12-08T15:43:44;30.23;;;13.45;;
75628;SDS011;64213;46.452;16.994;2022-12-08T15:46:46;26.37;;;10.90;;
75628;SDS011;64213;46.452;16.994;2022-12-08T15:49:50;30.87;;;13.30;;
75628;SDS011;64213;46.452;16.994;2022-12-08T15:52:56;29.20;;;13.10;;
75628;SDS011;64213;46.452;16.994;2022-12-08T15:56:02;31.10;;;12.88;;
75628;SDS011;64213;46.452;16.994;2022-12-08T15:59:29;28.62;;;13.02;;
75628;SDS011;64213;46.452;16.994;2022-12-08T16:02:32;29.50;;;12.60;;
75628;SDS011;64213;46.452;16.994;2022-12-08T16:05:54;30.77;;;11.87;;
75628;SDS011;64213;46.452;16.994;2022-12-08T16:12:26;27.75;;;12.05;;
75628;SDS011;64213;46.452;16.994;2022-12-08T16:16:09;30.80;;;12.73;;
75628;SDS011;64213;46.452;16.994;2022-12-08T16:19:14;30.65;;;12.70;;
75628;SDS011;64213;46.452;16.994;2022-12-08T16:22:18;28.70;;;13.57;;
75628;SDS011;64213;46.452;16.994;2022-12-08T16:25:42;27.97;;;12.13;;
75628;SDS011;64213;46.452;16.994;2022-12-08T16:29:04;28.27;;;12.18;;
75628;SDS011;64213;46.452;16.994;2022-12-08T16:32:07;30.50;;;13.62;;
75628;SDS011;64213;46.452;16.994;2022-12-08T16:35:09;28.58;;;12.70;;
75628;SDS011;64213;46.452;16.994;2022-12-08T16:38:13;30.00;;;12.70;;
75628;SDS011;64213;46.452;16.994;2022-12-08T16:41:17;32.27;;;13.60;;
75628;SDS011;64213;46.452;16.994;2022-12-08T16:44:39;33.60;;;14.10;;
75628;SDS011;64213;46.452;16.994;2022-12-08T16:47:44;29.85;;;13.75;;
75628;SDS011;64213;46.452;16.994;2022-12-08T16:50:48;32.05;;;13.77;;
75628;SDS011;64213;46.452;16.994;2022-12-08T16:53:50;40.77;;;17.87;;
75628;SDS011;64213;46.452;16.994;2022-12-08T16:56:53;35.17;;;14.33;;
75628;SDS011;64213;46.452;16.994;2022-12-08T16:59:55;37.45;;;14.93;;
75628;SDS011;64213;46.452;16.994;2022-12-08T17:02:57;37.03;;;14.50;;
75628;SDS011;64213;46.452;16.994;2022-12-08T17:05:59;27.98;;;13.55;;
75628;SDS011;64213;46.452;16.994;2022-12-08T17:09:01;35.20;;;15.07;;
75628;SDS011;64213;46.452;16.994;2022-12-08T17:12:04;35.67;;;14.73;;
75628;SDS011;64213;46.452;16.994;2022-12-08T17:15:06;46.00;;;17.23;;
75628;SDS011;64213;46.452;16.994;2022-12-08T17:18:12;41.20;;;15.52;;
75628;SDS011;64213;46.452;16.994;2022-12-08T17:21:14;33.22;;;13.70;;
75628;SDS011;64213;46.452;16.994;2022-12-08T17:24:17;33.70;;;13.30;;
75628;SDS011;64213;46.452;16.994;2022-12-08T17:27:23;35.37;;;14.43;;
75628;SDS011;64213;46.452;16.994;2022-12-08T17:30:25;35.88;;;15.18;;
75628;SDS011;64213;46.452;16.994;2022-12-08T17:33:28;34.45;;;14.93;;
75628;SDS011;64213;46.452;16.994;2022-12-08T17:36:30;37.53;;;15.80;;
75628;SDS011;64213;46.452;16.994;2022-12-08T17:39:33;30.17;;;13.83;;
75628;SDS011;64213;46.452;16.994;2022-12-08T17:42:35;32.70;;;14.57;;
75628;SDS011;64213;46.452;16.994;2022-12-08T17:45:39;40.53;;;15.13;;
75628;SDS011;64213;46.452;16.994;2022-12-08T17:48:46;27.77;;;12.00;;
75628;SDS011;64213;46.452;16.994;2022-12-08T17:51:50;44.78;;;14.50;;
75628;SDS011;64213;46.452;16.994;2022-12-08T17:54:54;33.37;;;13.50;;
75628;SDS011;64213;46.452;16.994;2022-12-08T17:57:56;33.43;;;11.37;;
75628;SDS011;64213;46.452;16.994;2022-12-08T18:00:58;34.38;;;13.70;;
75628;SDS011;64213;46.452;16.994;2022-12-08T18:04:02;25.80;;;10.85;;
75628;SDS011;64213;46.452;16.994;2022-12-08T18:07:07;36.17;;;14.30;;
75628;SDS011;64213;46.452;16.994;2022-12-08T18:10:10;32.00;;;13.30;;
75628;SDS011;64213;46.452;16.994;2022-12-08T18:13:13;39.73;;;14.57;;
75628;SDS011;64213;46.452;16.994;2022-12-08T18:16:15;35.22;;;14.35;;
75628;SDS011;64213;46.452;16.994;2022-12-08T18:19:19;52.90;;;20.40;;
75628;SDS011;64213;46.452;16.994;2022-12-08T18:22:22;33.83;;;14.02;;
75628;SDS011;64213;46.452;16.994;2022-12-08T18:25:25;34.63;;;13.33;;
75628;SDS011;64213;46.452;16.994;2022-12-08T18:28:27;36.13;;;14.63;;
75628;SDS011;64213;46.452;16.994;2022-12-08T18:31:30;38.97;;;16.27;;
75628;SDS011;64213;46.452;16.994;2022-12-08T18:34:33;39.58;;;14.70;;
75628;SDS011;64213;46.452;16.994;2022-12-08T18:37:36;37.10;;;14.52;;
75628;SDS011;64213;46.452;16.994;2022-12-08T18:40:38;34.13;;;13.90;;
75628;SDS011;64213;46.452;16.994;2022-12-08T18:43:41;29.83;;;12.13;;
75628;SDS011;64213;46.452;16.994;2022-12-08T18:46:43;30.80;;;11.95;;
75628;SDS011;64213;46.452;16.994;2022-12-08T18:49:47;36.88;;;13.95;;
75628;SDS011;64213;46.452;16.994;2022-12-08T18:52:49;33.13;;;12.88;;
75628;SDS011;64213;46.452;16.994;2022-12-08T18:55:52;29.07;;;11.83;;
75628;SDS011;64213;46.452;16.994;2022-12-08T18:58:56;33.27;;;12.30;;
75628;SDS011;64213;46.452;16.994;2022-12-08T19:02:04;33.13;;;12.90;;
75628;SDS011;64213;46.452;16.994;2022-12-08T19:05:08;35.58;;;13.52;;
75628;SDS011;64213;46.452;16.994;2022-12-08T19:08:13;34.58;;;14.27;;
75628;SDS011;64213;46.452;16.994;2022-12-08T19:11:16;34.23;;;13.17;;
75628;SDS011;64213;46.452;16.994;2022-12-08T19:14:20;31.97;;;12.83;;
75628;SDS011;64213;46.452;16.994;2022-12-08T19:17:29;34.30;;;13.88;;
75628;SDS011;64213;46.452;16.994;2022-12-08T19:20:31;31.92;;;13.38;;